Pago Pago, American Samoa
Current Conditions -  °F | °C
As of 5:50 AM on Saturday 25 Oct 2014 (Local Time) from NSTU Reporting Station
Broken Clouds Broken Clouds  
Wind Chill: 77°   Ceiling: 10000
Heat Index: 77°   Visibility: 11mi
Dew Point: 76°   Wind: 0mph
Humidity: 98%   Direction: NA
Pressure: 29.83"   Gusts: NA
Location:  14.33°S, 170.72°W
Report Text: NSTU 251650Z 00000KT 11SM SCT019 SCT040 BKN100 25/25 A2983 RMKSLP103 T02490245
Loading
Personal Weather Stations






























Interactive Weather Map
Tropical Storm Tracking
New forecast layout! Learn more

10-Day Weather Forecast

Advertisements
Track Severe Weather on mobile